Terminal Aerodrome Forecast
Issued by NWS

Home | Current Version | Previous Version | Text Only | Print | Product List | Glossary On
Versions: 1 2 3 4 5 6 7 8 9 10 11 12 13 14 15
000
FTAK31 PAJN 161100
TAFAYA
TAF
PAYA 161140Z 1612/1712 07004KT 6SM -RA SCT015 BKN030 OVC040
     FM161600 10004KT P6SM BKN035 OVC050
     FM170000 VRB04KT P6SM SCT040 BKN100
      AMD LTD TO CLD VIS AND WIND 1701/1710=

USA.gov is the U.S. government's official web portal to all federal, state and local government web resources and services.